Time;durP1;ratioP1;P1;durP2;ratioP2;P2;SDS_P1;SDS_P2;PMS_P1;PMS_P2;Temp;Humidity;BMP_temperature;BMP_pressure;BME280_temperature;BME280_humidity;BME280_pressure;Samples;Min_cycle;Max_cycle;Signal;HPM_P1;HPM_P2
2022/07/15 00:02:06;;;;;;;9.57;1.80;;;;;;;;;;7374193;19;20311;-76
2022/07/15 00:04:31;;;;;;;9.82;2.33;;;;;;;;;;7367046;19;20074;-73
2022/07/15 00:06:56;;;;;;;6.65;1.88;;;;;;;;;;7371688;19;20003;-80
2022/07/15 00:10:13;;;;;;;6.30;1.73;;;;;;;;;;7371928;19;19995;-80
2022/07/15 00:12:07;;;;;;;7.90;2.00;;;;;;;;;;7369389;19;20006;-80
2022/07/15 00:14:32;;;;;;;8.35;2.15;;;;;;;;;;7374853;19;20006;-81
2022/07/15 00:16:57;;;;;;;5.78;2.17;;;;;;;;;;7369442;19;20328;-77
2022/07/15 00:19:22;;;;;;;5.50;1.80;;;;;;;;;;7371369;19;20482;-78
2022/07/15 00:21:48;;;;;;;10.27;2.00;;;;;;;;;;7375396;19;20232;-81
2022/07/15 00:24:13;;;;;;;3.70;1.70;;;;;;;;;;7376058;19;20078;-77
2022/07/15 00:26:38;;;;;;;8.13;2.00;;;;;;;;;;7365702;19;20251;-77
2022/07/15 00:29:03;;;;;;;4.97;1.90;;;;;;;;;;7374806;19;20021;-76
2022/07/15 00:31:29;;;;;;;6.33;1.87;;;;;;;;;;7375318;19;20256;-78
2022/07/15 00:33:54;;;;;;;6.65;2.00;;;;;;;;;;7337088;19;20272;-80
2022/07/15 00:36:20;;;;;;;8.45;1.95;;;;;;;;;;7377293;19;20003;-79
2022/07/15 00:38:45;;;;;;;6.40;2.07;;;;;;;;;;7375885;19;20007;-76
2022/07/15 00:41:10;;;;;;;6.53;1.93;;;;;;;;;;7372244;19;20600;-82
2022/07/15 00:43:35;;;;;;;9.80;2.37;;;;;;;;;;7372645;19;20275;-82
2022/07/15 00:46:00;;;;;;;9.70;2.58;;;;;;;;;;7370747;19;20268;-78
2022/07/15 00:48:25;;;;;;;6.97;2.00;;;;;;;;;;7366945;19;20011;-73
2022/07/15 00:50:51;;;;;;;6.17;2.10;;;;;;;;;;7375424;19;20002;-77
2022/07/15 00:53:18;;;;;;;6.77;2.40;;;;;;;;;;7375213;19;20595;-77
2022/07/15 00:55:44;;;;;;;6.70;2.40;;;;;;;;;;7370103;19;20234;-73
2022/07/15 00:58:11;;;;;;;8.38;2.42;;;;;;;;;;7371779;19;20023;-74
2022/07/15 01:00:36;;;;;;;6.57;2.25;;;;;;;;;;7371102;19;20014;-74
2022/07/15 01:03:01;;;;;;;5.20;2.13;;;;;;;;;;7357130;19;20589;-79
2022/07/15 01:05:26;;;;;;;7.05;1.80;;;;;;;;;;7371096;19;20259;-78
2022/07/15 01:07:52;;;;;;;10.93;2.40;;;;;;;;;;7363857;19;20299;-79
2022/07/15 01:10:18;;;;;;;7.60;2.58;;;;;;;;;;7371600;19;20049;-80
2022/07/15 01:12:46;;;;;;;6.75;2.60;;;;;;;;;;7370389;19;20011;-75
2022/07/15 01:15:11;;;;;;;8.90;2.25;;;;;;;;;;7360462;19;20017;-74
2022/07/15 01:17:36;;;;;;;10.63;2.47;;;;;;;;;;7365305;19;20014;-79
2022/07/15 01:20:02;;;;;;;5.40;2.03;;;;;;;;;;7372691;19;20220;-79
2022/07/15 01:22:27;;;;;;;11.73;2.53;;;;;;;;;;7372437;19;20573;-81
2022/07/15 01:24:52;;;;;;;7.75;2.40;;;;;;;;;;7370237;19;20017;-74
2022/07/15 01:27:18;;;;;;;7.70;2.95;;;;;;;;;;7366578;19;20439;-75
2022/07/15 01:29:43;;;;;;;6.60;2.22;;;;;;;;;;7372746;19;20002;-79
2022/07/15 01:32:08;;;;;;;6.50;2.13;;;;;;;;;;7369715;19;20306;-78
2022/07/15 01:34:33;;;;;;;8.68;2.75;;;;;;;;;;7373495;19;20007;-71
2022/07/15 01:36:59;;;;;;;9.10;2.70;;;;;;;;;;7368839;19;20016;-78
2022/07/15 01:39:24;;;;;;;11.55;3.20;;;;;;;;;;7373535;19;20710;-79
2022/07/15 01:41:49;;;;;;;8.33;3.00;;;;;;;;;;7372709;19;20006;-76
2022/07/15 01:44:14;;;;;;;9.40;3.07;;;;;;;;;;7373635;19;20762;-72
2022/07/15 01:46:39;;;;;;;8.23;3.13;;;;;;;;;;7366245;19;20255;-75
2022/07/15 01:49:25;;;;;;;7.63;2.63;;;;;;;;;;7364076;19;20613;-72
2022/07/15 01:51:56;;;;;;;5.40;2.42;;;;;;;;;;7372444;19;20371;-78
2022/07/15 01:54:22;;;;;;;10.88;3.58;;;;;;;;;;7373438;19;20390;-79
2022/07/15 01:56:48;;;;;;;9.85;3.88;;;;;;;;;;7372687;19;20591;-75
2022/07/15 01:59:14;;;;;;;8.60;3.75;;;;;;;;;;7377484;19;20010;-78
2022/07/15 02:01:39;;;;;;;10.87;3.63;;;;;;;;;;7382495;19;20021;-78
2022/07/15 02:04:04;;;;;;;11.53;3.80;;;;;;;;;;7373714;19;20279;-80
2022/07/15 02:06:29;;;;;;;11.30;4.13;;;;;;;;;;7375997;19;20003;-77
2022/07/15 02:08:55;;;;;;;11.05;3.67;;;;;;;;;;7378845;19;20243;-78
2022/07/15 02:11:21;;;;;;;9.30;3.90;;;;;;;;;;7376550;19;20031;-76
2022/07/15 02:13:46;;;;;;;11.10;4.33;;;;;;;;;;7375110;19;20522;-75
2022/07/15 02:16:11;;;;;;;10.88;4.35;;;;;;;;;;7377608;19;20011;-78
2022/07/15 02:18:36;;;;;;;12.37;5.63;;;;;;;;;;7373627;19;20007;-73
2022/07/15 02:21:02;;;;;;;10.23;5.55;;;;;;;;;;7380340;19;20445;-72
2022/07/15 02:23:27;;;;;;;15.10;5.80;;;;;;;;;;7380975;19;20501;-75
2022/07/15 02:25:53;;;;;;;9.80;4.40;;;;;;;;;;7379527;19;20453;-76
2022/07/15 02:28:18;;;;;;;11.27;5.50;;;;;;;;;;7369420;19;20636;-75
2022/07/15 02:30:44;;;;;;;14.13;4.53;;;;;;;;;;7379138;19;20014;-73
2022/07/15 02:33:09;;;;;;;9.00;3.17;;;;;;;;;;7364776;19;20078;-77
2022/07/15 02:35:35;;;;;;;11.05;3.72;;;;;;;;;;7375864;19;20435;-75
2022/07/15 02:38:00;;;;;;;9.15;3.28;;;;;;;;;;7383225;19;20066;-77
2022/07/15 02:40:26;;;;;;;10.33;3.70;;;;;;;;;;7374151;19;20014;-77
2022/07/15 02:42:52;;;;;;;10.48;4.20;;;;;;;;;;7375264;19;20255;-76
2022/07/15 02:45:19;;;;;;;9.98;4.30;;;;;;;;;;7379021;19;20054;-78
2022/07/15 02:47:44;;;;;;;10.63;3.42;;;;;;;;;;7376305;19;20017;-78
2022/07/15 02:50:09;;;;;;;9.15;2.95;;;;;;;;;;7376090;19;19991;-72
2022/07/15 02:52:34;;;;;;;7.50;2.40;;;;;;;;;;7378582;19;20014;-73
2022/07/15 02:55:00;;;;;;;6.88;2.55;;;;;;;;;;7374933;19;20006;-73
2022/07/15 02:57:25;;;;;;;5.75;2.67;;;;;;;;;;7373119;19;20010;-80
2022/07/15 02:59:50;;;;;;;7.25;2.45;;;;;;;;;;7377876;19;20469;-79
2022/07/15 03:02:15;;;;;;;8.13;2.43;;;;;;;;;;7376239;19;20031;-79
2022/07/15 03:04:41;;;;;;;9.40;2.77;;;;;;;;;;7377669;19;20245;-79
2022/07/15 03:07:06;;;;;;;5.28;2.55;;;;;;;;;;7370805;19;20264;-75
2022/07/15 03:09:31;;;;;;;6.77;2.70;;;;;;;;;;7373572;19;20062;-78
2022/07/15 03:11:56;;;;;;;7.03;2.75;;;;;;;;;;7373635;19;20263;-72
2022/07/15 03:14:21;;;;;;;7.40;3.47;;;;;;;;;;7371931;19;20071;-79
2022/07/15 03:16:47;;;;;;;10.97;2.47;;;;;;;;;;7381022;19;20010;-75
2022/07/15 03:19:12;;;;;;;5.82;2.25;;;;;;;;;;7373590;19;20564;-79
2022/07/15 03:21:37;;;;;;;9.83;3.10;;;;;;;;;;7378465;19;20009;-79
2022/07/15 03:24:03;;;;;;;5.85;2.42;;;;;;;;;;7375878;19;20082;-77
2022/07/15 03:26:29;;;;;;;7.85;2.80;;;;;;;;;;7374023;19;20010;-79
2022/07/15 03:28:54;;;;;;;6.15;2.78;;;;;;;;;;7377868;19;20151;-81
2022/07/15 03:31:19;;;;;;;6.43;3.10;;;;;;;;;;7373747;19;20006;-73
2022/07/15 03:33:44;;;;;;;7.93;3.00;;;;;;;;;;7368715;19;20259;-77
2022/07/15 03:36:09;;;;;;;8.43;3.28;;;;;;;;;;7372582;19;20017;-79
2022/07/15 03:38:35;;;;;;;7.22;3.45;;;;;;;;;;7374555;19;20019;-78
2022/07/15 03:41:00;;;;;;;7.38;3.38;;;;;;;;;;7372515;19;20055;-74
2022/07/15 03:43:29;;;;;;;8.73;3.23;;;;;;;;;;7368834;19;20040;-82
2022/07/15 03:45:54;;;;;;;7.20;3.30;;;;;;;;;;7373438;19;20228;-82
2022/07/15 03:48:19;;;;;;;9.00;3.55;;;;;;;;;;7371207;19;20466;-80
2022/07/15 03:50:45;;;;;;;7.60;3.53;;;;;;;;;;7374962;19;20069;-79
2022/07/15 03:53:10;;;;;;;9.48;4.47;;;;;;;;;;7373210;19;20007;-79
2022/07/15 03:55:37;;;;;;;9.20;4.63;;;;;;;;;;7377282;19;20010;-72
2022/07/15 03:58:02;;;;;;;22.15;5.75;;;;;;;;;;7373619;19;20375;-78
2022/07/15 04:00:28;;;;;;;13.27;5.70;;;;;;;;;;7372357;19;20015;-81
2022/07/15 04:02:53;;;;;;;12.57;6.38;;;;;;;;;;7374073;19;20362;-79
2022/07/15 04:05:18;;;;;;;12.75;5.22;;;;;;;;;;7374063;19;20018;-79
2022/07/15 04:07:43;;;;;;;10.07;5.05;;;;;;;;;;7370345;19;20394;-78
2022/07/15 04:10:08;;;;;;;12.00;4.65;;;;;;;;;;7373987;19;20011;-77
2022/07/15 04:12:34;;;;;;;8.15;4.50;;;;;;;;;;7373945;19;20564;-74
2022/07/15 04:14:59;;;;;;;7.05;3.92;;;;;;;;;;7375278;19;20014;-75
2022/07/15 04:17:24;;;;;;;9.63;3.53;;;;;;;;;;7367684;19;20002;-75
2022/07/15 04:19:49;;;;;;;8.80;3.87;;;;;;;;;;7374911;19;20251;-75
2022/07/15 04:22:14;;;;;;;7.57;3.07;;;;;;;;;;7369742;19;20255;-81
2022/07/15 04:24:39;;;;;;;7.70;3.25;;;;;;;;;;7375934;19;20220;-72
2022/07/15 04:27:05;;;;;;;9.73;2.80;;;;;;;;;;7374413;19;20021;-73
2022/07/15 04:29:30;;;;;;;6.38;2.72;;;;;;;;;;7374344;19;20647;-76
2022/07/15 04:31:56;;;;;;;9.93;3.63;;;;;;;;;;7361870;19;20010;-73
2022/07/15 04:34:21;;;;;;;9.60;3.70;;;;;;;;;;7372292;19;20228;-78
2022/07/15 04:36:46;;;;;;;12.23;4.13;;;;;;;;;;7375994;19;20311;-78
2022/07/15 04:39:11;;;;;;;11.05;4.00;;;;;;;;;;7378860;19;20006;-79
2022/07/15 04:41:36;;;;;;;7.97;3.90;;;;;;;;;;7374681;19;20014;-76
2022/07/15 04:44:02;;;;;;;7.82;3.50;;;;;;;;;;7379245;19;20239;-81
2022/07/15 04:46:27;;;;;;;10.47;4.20;;;;;;;;;;7376298;19;19994;-79
2022/07/15 04:51:36;;;;;;;7.88;3.30;;;;;;;;;;7378783;19;20107;-79
2022/07/15 04:54:01;;;;;;;8.07;3.73;;;;;;;;;;7376295;19;20626;-74
2022/07/15 04:56:26;;;;;;;8.97;3.83;;;;;;;;;;7371803;19;20759;-76
2022/07/15 04:58:51;;;;;;;8.13;3.50;;;;;;;;;;7375061;19;20243;-76
2022/07/15 05:01:17;;;;;;;8.43;3.30;;;;;;;;;;7374752;19;20240;-80
2022/07/15 05:03:42;;;;;;;9.77;3.00;;;;;;;;;;7375692;19;20272;-79
2022/07/15 05:06:07;;;;;;;8.27;3.30;;;;;;;;;;7375311;19;20307;-75
2022/07/15 05:08:32;;;;;;;7.73;3.00;;;;;;;;;;7373929;19;20515;-74
2022/07/15 05:10:58;;;;;;;9.85;4.80;;;;;;;;;;7380119;19;20246;-75
2022/07/15 05:13:23;;;;;;;8.30;4.05;;;;;;;;;;7371980;19;20021;-74
2022/07/15 05:15:48;;;;;;;10.85;3.72;;;;;;;;;;7368127;19;20013;-78
2022/07/15 05:18:13;;;;;;;10.97;4.70;;;;;;;;;;7369617;19;20442;-80
2022/07/15 05:20:38;;;;;;;12.70;5.93;;;;;;;;;;7373560;19;20231;-77
2022/07/15 05:23:04;;;;;;;17.03;7.07;;;;;;;;;;7376777;19;20250;-75
2022/07/15 05:25:29;;;;;;;15.63;8.07;;;;;;;;;;7367622;19;20815;-78
2022/07/15 05:27:54;;;;;;;15.73;6.75;;;;;;;;;;7372601;19;20014;-77
2022/07/15 05:30:20;;;;;;;12.98;7.30;;;;;;;;;;7378077;19;20006;-79
2022/07/15 05:32:45;;;;;;;16.73;9.03;;;;;;;;;;7373426;19;20022;-80
2022/07/15 05:35:12;;;;;;;13.52;6.00;;;;;;;;;;7372475;19;20232;-76
2022/07/15 05:37:38;;;;;;;11.27;4.43;;;;;;;;;;7374710;19;20038;-78
2022/07/15 05:40:04;;;;;;;12.52;4.43;;;;;;;;;;7359137;19;20988;-79
2022/07/15 05:42:29;;;;;;;8.95;3.83;;;;;;;;;;7356887;19;20033;-80
2022/07/15 05:44:54;;;;;;;10.70;4.63;;;;;;;;;;7374753;19;20466;-81
2022/07/15 05:47:20;;;;;;;6.80;3.97;;;;;;;;;;7370344;19;20035;-76
2022/07/15 05:49:45;;;;;;;10.65;4.13;;;;;;;;;;7367615;19;20006;-76
2022/07/15 05:52:10;;;;;;;11.32;5.20;;;;;;;;;;7363437;19;20014;-77
2022/07/15 05:54:37;;;;;;;15.17;5.10;;;;;;;;;;7365380;19;20072;-76
2022/07/15 05:57:02;;;;;;;12.32;5.47;;;;;;;;;;7368448;19;20021;-78
2022/07/15 05:59:27;;;;;;;14.67;5.40;;;;;;;;;;7370075;19;20093;-79
2022/07/15 06:01:52;;;;;;;10.23;5.78;;;;;;;;;;7372127;19;20227;-77
2022/07/15 06:04:17;;;;;;;12.57;5.40;;;;;;;;;;7355651;19;20014;-75
2022/07/15 06:06:42;;;;;;;12.85;6.47;;;;;;;;;;7369423;19;20264;-76
2022/07/15 06:09:09;;;;;;;11.50;6.97;;;;;;;;;;7367065;19;20007;-75
2022/07/15 06:11:34;;;;;;;13.07;6.40;;;;;;;;;;7369897;19;20232;-75
2022/07/15 06:13:59;;;;;;;12.60;6.07;;;;;;;;;;7376175;19;20082;-76
2022/07/15 06:16:24;;;;;;;14.82;6.28;;;;;;;;;;7377247;19;20026;-75
2022/07/15 06:18:50;;;;;;;13.55;5.20;;;;;;;;;;7365546;19;20355;-76
2022/07/15 06:21:15;;;;;;;11.40;5.20;;;;;;;;;;7374220;19;20015;-75
2022/07/15 06:23:40;;;;;;;14.07;5.63;;;;;;;;;;7373962;19;20014;-75
2022/07/15 06:26:06;;;;;;;13.27;6.17;;;;;;;;;;7369342;19;20013;-76
2022/07/15 06:28:31;;;;;;;12.90;4.77;;;;;;;;;;7358232;19;20755;-77
2022/07/15 06:30:56;;;;;;;11.50;4.80;;;;;;;;;;7375376;19;20018;-74
2022/07/15 06:33:24;;;;;;;17.73;5.97;;;;;;;;;;7368445;19;20350;-74
2022/07/15 06:35:49;;;;;;;12.50;5.53;;;;;;;;;;7377397;19;20022;-74
2022/07/15 06:38:15;;;;;;;17.00;5.38;;;;;;;;;;7377579;19;19999;-73
2022/07/15 06:40:40;;;;;;;14.37;5.10;;;;;;;;;;7374771;19;20021;-75
2022/07/15 06:43:05;;;;;;;11.93;4.60;;;;;;;;;;7383237;19;20251;-73
2022/07/15 06:45:30;;;;;;;14.80;4.80;;;;;;;;;;7387963;19;20019;-74
2022/07/15 06:47:55;;;;;;;15.45;5.18;;;;;;;;;;7381978;19;20335;-74
2022/07/15 06:50:22;;;;;;;12.43;5.10;;;;;;;;;;7385311;19;20002;-74
2022/07/15 06:52:47;;;;;;;11.57;4.75;;;;;;;;;;7379054;19;20023;-74
2022/07/15 06:55:12;;;;;;;13.95;5.25;;;;;;;;;;7387449;19;20023;-74
2022/07/15 06:57:39;;;;;;;11.20;4.40;;;;;;;;;;7387207;19;20011;-74
2022/07/15 07:00:06;;;;;;;9.07;3.60;;;;;;;;;;7378569;19;20932;-74
2022/07/15 07:02:32;;;;;;;13.43;4.43;;;;;;;;;;7381518;19;20477;-74
2022/07/15 07:04:57;;;;;;;9.40;3.55;;;;;;;;;;7383862;19;19998;-75
2022/07/15 07:07:22;;;;;;;9.03;3.60;;;;;;;;;;7381197;19;20017;-74
2022/07/15 07:09:47;;;;;;;11.03;3.80;;;;;;;;;;7384443;19;19999;-74
2022/07/15 07:12:13;;;;;;;12.10;3.93;;;;;;;;;;7385792;19;20262;-74
2022/07/15 07:14:38;;;;;;;9.87;4.43;;;;;;;;;;7389227;19;20235;-74
2022/07/15 07:17:03;;;;;;;9.73;4.17;;;;;;;;;;7379048;19;20723;-74
2022/07/15 07:19:28;;;;;;;9.97;3.83;;;;;;;;;;7385360;19;20006;-74
2022/07/15 07:21:53;;;;;;;13.83;4.43;;;;;;;;;;7385646;19;19990;-74
2022/07/15 07:24:19;;;;;;;10.73;4.05;;;;;;;;;;7384085;19;20010;-74
2022/07/15 07:26:44;;;;;;;10.50;3.60;;;;;;;;;;7382887;19;20009;-75
2022/07/15 07:29:12;;;;;;;11.23;3.77;;;;;;;;;;7385047;19;20009;-74
2022/07/15 07:31:37;;;;;;;9.82;3.33;;;;;;;;;;7386877;19;20617;-74
2022/07/15 07:34:02;;;;;;;9.15;3.35;;;;;;;;;;7382928;19;20323;-74
2022/07/15 07:36:27;;;;;;;13.07;3.70;;;;;;;;;;7383119;19;20497;-74
2022/07/15 07:38:53;;;;;;;14.27;3.57;;;;;;;;;;7386589;19;20585;-75
2022/07/15 07:41:18;;;;;;;9.18;3.08;;;;;;;;;;7381567;19;20786;-75
2022/07/15 07:43:44;;;;;;;8.20;3.22;;;;;;;;;;7386090;19;20090;-74
2022/07/15 07:46:10;;;;;;;9.82;3.75;;;;;;;;;;7385333;19;20014;-75
2022/07/15 07:48:37;;;;;;;9.13;3.42;;;;;;;;;;7380972;19;20009;-75
2022/07/15 07:51:02;;;;;;;9.82;2.90;;;;;;;;;;7385171;19;20015;-75
2022/07/15 07:53:27;;;;;;;9.83;3.20;;;;;;;;;;7385128;19;20458;-75
2022/07/15 07:55:52;;;;;;;10.60;3.33;;;;;;;;;;7385593;19;20248;-74
2022/07/15 07:58:20;;;;;;;10.05;2.85;;;;;;;;;;7381448;19;19995;-74
2022/07/15 08:00:46;;;;;;;11.15;4.10;;;;;;;;;;7383480;19;20488;-74
2022/07/15 08:03:11;;;;;;;10.07;4.00;;;;;;;;;;7377291;19;20006;-74
2022/07/15 08:05:36;;;;;;;9.05;3.72;;;;;;;;;;7379195;19;20440;-74
2022/07/15 08:08:09;;;;;;;10.43;3.90;;;;;;;;;;7381734;19;20597;-74
2022/07/15 08:10:34;;;;;;;14.30;3.83;;;;;;;;;;7384399;19;20030;-74
2022/07/15 08:13:00;;;;;;;11.43;4.03;;;;;;;;;;7385254;19;20077;-74
2022/07/15 08:15:26;;;;;;;10.73;3.67;;;;;;;;;;7386579;19;20007;-74
2022/07/15 08:17:51;;;;;;;9.88;3.67;;;;;;;;;;7380070;19;20474;-74
2022/07/15 08:20:17;;;;;;;10.43;3.20;;;;;;;;;;7382377;19;19999;-75
2022/07/15 08:22:42;;;;;;;10.07;3.17;;;;;;;;;;7385175;19;20018;-74
2022/07/15 08:25:07;;;;;;;9.48;3.17;;;;;;;;;;7382346;19;20623;-74
2022/07/15 08:27:32;;;;;;;10.60;3.45;;;;;;;;;;7383062;19;20014;-75
2022/07/15 08:29:58;;;;;;;9.30;2.63;;;;;;;;;;7384738;19;20585;-75
2022/07/15 08:32:23;;;;;;;9.03;3.13;;;;;;;;;;7380643;19;20025;-74
2022/07/15 08:34:48;;;;;;;8.00;2.83;;;;;;;;;;7381683;19;20002;-75
2022/07/15 08:37:14;;;;;;;7.95;2.58;;;;;;;;;;7383296;19;20086;-75
2022/07/15 08:39:39;;;;;;;6.22;2.50;;;;;;;;;;7384203;19;20003;-75
2022/07/15 08:42:04;;;;;;;7.27;2.23;;;;;;;;;;7379572;19;20010;-74
2022/07/15 08:44:30;;;;;;;6.15;2.00;;;;;;;;;;7381763;19;20228;-72
2022/07/15 08:46:58;;;;;;;7.97;2.70;;;;;;;;;;7379442;19;20011;-72
2022/07/15 08:49:24;;;;;;;8.70;2.50;;;;;;;;;;7381064;19;20017;-72
2022/07/15 08:51:50;;;;;;;9.00;3.10;;;;;;;;;;7384167;19;20018;-72
2022/07/15 08:54:16;;;;;;;8.32;2.83;;;;;;;;;;7384057;19;20645;-74
2022/07/15 08:56:45;;;;;;;8.18;2.65;;;;;;;;;;7380729;19;20478;-75
2022/07/15 08:59:11;;;;;;;7.32;2.22;;;;;;;;;;7381061;19;20008;-75
2022/07/15 09:01:41;;;;;;;12.40;2.45;;;;;;;;;;7379157;19;20319;-75
2022/07/15 09:04:06;;;;;;;13.15;2.67;;;;;;;;;;7376783;19;20015;-74
2022/07/15 09:06:34;;;;;;;11.30;2.85;;;;;;;;;;7382270;19;20005;-74
2022/07/15 09:09:19;;;;;;;7.20;2.58;;;;;;;;;;7380055;19;20097;-74
2022/07/15 09:11:52;;;;;;;5.70;2.22;;;;;;;;;;7379018;19;20035;-74
2022/07/15 09:14:18;;;;;;;6.57;2.45;;;;;;;;;;7381381;19;20078;-74
2022/07/15 09:16:43;;;;;;;7.72;2.33;;;;;;;;;;7382515;19;20052;-74
2022/07/15 09:19:08;;;;;;;8.00;2.30;;;;;;;;;;7377906;19;20006;-74
2022/07/15 09:21:34;;;;;;;5.72;2.10;;;;;;;;;;7383342;19;20375;-75
2022/07/15 09:24:14;;;;;;;8.53;2.20;;;;;;;;;;7383444;19;20039;-72
2022/07/15 09:26:39;;;;;;;6.82;2.00;;;;;;;;;;7379292;19;20616;-74
2022/07/15 09:33:34;;;;;;;16.83;2.63;;;;;;;;;;7379814;19;20330;-74
2022/07/15 09:35:01;;;;;;;6.95;2.38;;;;;;;;;;7381397;19;20009;-75
2022/07/15 09:37:26;;;;;;;10.18;2.40;;;;;;;;;;7381384;19;20011;-73
2022/07/15 09:39:55;;;;;;;7.72;1.95;;;;;;;;;;7380577;19;20014;-74
2022/07/15 09:42:21;;;;;;;7.55;2.08;;;;;;;;;;7379536;19;20327;-74
2022/07/15 09:44:46;;;;;;;6.28;2.10;;;;;;;;;;7381598;19;19999;-74
2022/07/15 09:47:18;;;;;;;4.80;1.70;;;;;;;;;;7377753;19;20585;-74
2022/07/15 09:49:44;;;;;;;7.55;1.95;;;;;;;;;;7379350;19;20033;-72
2022/07/15 09:52:10;;;;;;;5.82;1.73;;;;;;;;;;7381917;19;20059;-74
2022/07/15 09:54:46;;;;;;;4.93;1.63;;;;;;;;;;7381903;19;20018;-72
2022/07/15 09:57:14;;;;;;;4.57;1.83;;;;;;;;;;7378023;19;20119;-72
2022/07/15 09:59:40;;;;;;;8.43;1.83;;;;;;;;;;7374934;19;20470;-72
2022/07/15 10:02:05;;;;;;;6.05;1.85;;;;;;;;;;7375847;19;20011;-71
2022/07/15 10:04:31;;;;;;;6.63;1.70;;;;;;;;;;7378433;19;20006;-72
2022/07/15 10:06:57;;;;;;;5.30;1.97;;;;;;;;;;7381710;19;19998;-72
2022/07/15 10:09:24;;;;;;;7.20;2.00;;;;;;;;;;7377847;19;20332;-72
2022/07/15 10:11:52;;;;;;;6.00;1.80;;;;;;;;;;7378310;19;20013;-72
2022/07/15 10:14:17;;;;;;;6.50;1.95;;;;;;;;;;7380604;19;20002;-72
2022/07/15 10:16:52;;;;;;;6.70;2.10;;;;;;;;;;7378568;19;20018;-74
2022/07/15 10:19:24;;;;;;;11.07;1.92;;;;;;;;;;7386227;19;20241;-74
2022/07/15 10:21:49;;;;;;;7.78;1.70;;;;;;;;;;7388885;19;20561;-72
2022/07/15 10:24:14;;;;;;;5.60;1.80;;;;;;;;;;7390104;19;20362;-72
2022/07/15 10:26:40;;;;;;;6.20;1.63;;;;;;;;;;7384613;19;20481;-72
2022/07/15 10:29:07;;;;;;;4.45;1.70;;;;;;;;;;7386851;19;20033;-74
2022/07/15 10:31:33;;;;;;;6.47;1.63;;;;;;;;;;7387296;19;20018;-73
2022/07/15 10:34:07;;;;;;;5.47;1.70;;;;;;;;;;7384219;19;20002;-73
2022/07/15 10:36:53;;;;;;;4.00;1.30;;;;;;;;;;7385643;19;20494;-73
2022/07/15 10:39:19;;;;;;;5.47;1.67;;;;;;;;;;7386885;19;20546;-72
2022/07/15 10:42:03;;;;;;;3.28;1.30;;;;;;;;;;7382236;19;20432;-73
2022/07/15 10:44:32;;;;;;;4.75;1.45;;;;;;;;;;7387681;19;20010;-74
2022/07/15 10:47:13;;;;;;;5.18;1.23;;;;;;;;;;7384787;19;20062;-74
2022/07/15 10:49:39;;;;;;;5.25;1.63;;;;;;;;;;7386370;19;20010;-74
2022/07/15 10:52:11;;;;;;;5.55;1.83;;;;;;;;;;7386825;19;20619;-74
2022/07/15 10:54:37;;;;;;;7.07;1.80;;;;;;;;;;7385076;19;20566;-74
2022/07/15 10:57:03;;;;;;;6.97;1.60;;;;;;;;;;7372907;19;20562;-74
2022/07/15 10:59:34;;;;;;;6.63;1.63;;;;;;;;;;7365017;19;20046;-74
2022/07/15 11:02:00;;;;;;;4.65;1.50;;;;;;;;;;7376246;19;20023;-75
2022/07/15 11:04:27;;;;;;;4.30;1.45;;;;;;;;;;7381445;19;20329;-74
2022/07/15 11:07:01;;;;;;;4.35;1.20;;;;;;;;;;7381223;19;20458;-74
2022/07/15 11:09:45;;;;;;;6.32;1.30;;;;;;;;;;7386295;19;20002;-73
2022/07/15 11:12:11;;;;;;;;;;;;;;;;;;7382733;19;20011;-74
2022/07/15 11:14:43;;;;;;;5.03;1.67;;;;;;;;;;7382793;19;19922;-73
2022/07/15 11:17:09;;;;;;;4.05;1.30;;;;;;;;;;7382628;19;20022;-74
2022/07/15 11:19:35;;;;;;;5.10;1.52;;;;;;;;;;7385572;19;20006;-74
2022/07/15 11:22:01;;;;;;;7.50;1.73;;;;;;;;;;7384968;19;20014;-74
2022/07/15 11:24:27;;;;;;;4.03;1.48;;;;;;;;;;7387189;19;20006;-73
2022/07/15 11:26:52;;;;;;;7.70;1.95;;;;;;;;;;7381534;19;20513;-73
2022/07/15 11:29:18;;;;;;;5.55;1.40;;;;;;;;;;7381953;19;20005;-73
2022/07/15 11:31:43;;;;;;;4.33;1.33;;;;;;;;;;7385303;19;20355;-73
2022/07/15 11:34:08;;;;;;;6.47;1.60;;;;;;;;;;7381425;19;20589;-73
2022/07/15 11:36:33;;;;;;;4.57;1.60;;;;;;;;;;7385157;19;20235;-73
2022/07/15 17:45:51;;;;;;;3.75;0.93;;;;;;;;;;7323790;19;20712;-73
2022/07/15 17:48:16;;;;;;;8.73;1.25;;;;;;;;;;7347070;19;20540;-73
2022/07/15 17:50:41;;;;;;;3.60;1.08;;;;;;;;;;7361673;19;20018;-77
2022/07/15 17:53:07;;;;;;;2.57;0.87;;;;;;;;;;7353811;19;20011;-74
2022/07/15 17:55:32;;;;;;;3.53;1.10;;;;;;;;;;7374964;19;20339;-77
2022/07/15 17:57:57;;;;;;;5.20;1.00;;;;;;;;;;7371716;19;20015;-76
2022/07/15 18:00:22;;;;;;;5.30;0.90;;;;;;;;;;7368900;19;20343;-77
2022/07/15 18:02:47;;;;;;;2.90;0.80;;;;;;;;;;7348233;19;19999;-75
2022/07/15 18:05:13;;;;;;;4.13;0.90;;;;;;;;;;7366278;19;20042;-76
2022/07/15 18:07:38;;;;;;;4.53;1.00;;;;;;;;;;7373182;19;20010;-75
2022/07/15 18:10:04;;;;;;;4.63;1.00;;;;;;;;;;7373310;19;20007;-77
2022/07/15 18:12:29;;;;;;;3.90;1.15;;;;;;;;;;7365633;19;20630;-77
2022/07/15 18:14:54;;;;;;;5.17;0.90;;;;;;;;;;7368067;19;20009;-76
2022/07/15 18:17:19;;;;;;;4.07;0.80;;;;;;;;;;7371978;19;20285;-76
2022/07/15 18:19:44;;;;;;;3.90;0.97;;;;;;;;;;7369952;19;19994;-74
2022/07/15 18:22:10;;;;;;;4.38;1.10;;;;;;;;;;7366881;19;20335;-75
2022/07/15 18:24:35;;;;;;;4.07;0.83;;;;;;;;;;7373779;19;20433;-76
2022/07/15 18:27:00;;;;;;;3.53;1.17;;;;;;;;;;7373274;19;20247;-75
2022/07/15 18:29:25;;;;;;;3.50;0.80;;;;;;;;;;7368786;19;20850;-76
2022/07/15 18:31:51;;;;;;;4.82;0.70;;;;;;;;;;7371410;19;20649;-72
2022/07/15 18:34:16;;;;;;;2.97;0.90;;;;;;;;;;7368014;19;20009;-77
2022/07/15 18:36:41;;;;;;;3.80;0.90;;;;;;;;;;7374210;19;20264;-76
2022/07/15 18:39:06;;;;;;;6.00;1.00;;;;;;;;;;7372702;19;20011;-74
2022/07/15 18:41:31;;;;;;;4.67;1.00;;;;;;;;;;7373311;19;20031;-75
2022/07/15 18:43:58;;;;;;;5.33;0.80;;;;;;;;;;7375218;19;20015;-77
2022/07/15 18:46:26;;;;;;;5.03;1.17;;;;;;;;;;7362298;19;20391;-77
2022/07/15 18:48:51;;;;;;;4.82;0.93;;;;;;;;;;7374605;19;20320;-77
2022/07/15 18:51:16;;;;;;;3.40;1.03;;;;;;;;;;7369587;19;20021;-75
2022/07/15 18:53:41;;;;;;;3.03;0.80;;;;;;;;;;7372273;19;20228;-74
2022/07/15 18:56:07;;;;;;;5.85;0.90;;;;;;;;;;7381358;19;20596;-76
2022/07/15 18:58:32;;;;;;;4.55;0.90;;;;;;;;;;7379909;19;20002;-73
2022/07/15 19:00:57;;;;;;;3.97;1.10;;;;;;;;;;7374966;19;20023;-75
2022/07/15 19:03:23;;;;;;;3.50;0.90;;;;;;;;;;7379338;19;20058;-77
2022/07/15 19:05:48;;;;;;;3.92;0.93;;;;;;;;;;7374015;19;20023;-75
2022/07/15 19:08:14;;;;;;;2.15;0.60;;;;;;;;;;7377814;19;19998;-76
2022/07/15 19:10:39;;;;;;;5.93;1.20;;;;;;;;;;7375760;19;20081;-75
2022/07/15 19:13:04;;;;;;;4.43;1.00;;;;;;;;;;7378172;19;20315;-75
2022/07/15 19:15:30;;;;;;;4.85;1.02;;;;;;;;;;7377992;19;19995;-76
2022/07/15 19:17:55;;;;;;;6.07;1.02;;;;;;;;;;7373779;19;20387;-75
2022/07/15 19:20:21;;;;;;;4.05;0.90;;;;;;;;;;7378276;19;20002;-73
2022/07/15 19:22:46;;;;;;;2.28;0.70;;;;;;;;;;7374846;19;20026;-75
2022/07/15 19:25:11;;;;;;;2.93;0.87;;;;;;;;;;7374231;19;20644;-75
2022/07/15 19:27:36;;;;;;;5.30;1.30;;;;;;;;;;7378509;19;20015;-75
2022/07/15 19:30:02;;;;;;;4.67;1.10;;;;;;;;;;7376970;19;20017;-76
2022/07/15 19:32:28;;;;;;;3.97;1.05;;;;;;;;;;7370465;19;20409;-75
2022/07/15 19:34:53;;;;;;;4.35;1.00;;;;;;;;;;7377909;19;20006;-75
2022/07/15 19:37:18;;;;;;;4.73;1.10;;;;;;;;;;7372338;19;20011;-77
2022/07/15 19:39:44;;;;;;;4.07;0.98;;;;;;;;;;7373342;19;20066;-74
2022/07/15 19:42:09;;;;;;;8.13;1.20;;;;;;;;;;7376865;19;20513;-78
2022/07/15 19:44:34;;;;;;;5.05;1.30;;;;;;;;;;7374556;19;20266;-77
2022/07/15 19:46:59;;;;;;;3.80;1.10;;;;;;;;;;7365896;19;20039;-76
2022/07/15 19:49:24;;;;;;;6.13;1.10;;;;;;;;;;7364984;19;20537;-77
2022/07/15 19:51:50;;;;;;;5.03;1.13;;;;;;;;;;7376450;19;20259;-75
2022/07/15 19:54:15;;;;;;;4.30;0.95;;;;;;;;;;7375811;19;20239;-78
2022/07/15 19:56:40;;;;;;;7.40;1.10;;;;;;;;;;7376559;19;20085;-75
2022/07/15 20:01:51;;;;;;;4.68;0.90;;;;;;;;;;7372357;19;20031;-73
2022/07/15 20:04:17;;;;;;;6.75;1.20;;;;;;;;;;7374238;19;20018;-74
2022/07/15 20:06:43;;;;;;;4.28;0.93;;;;;;;;;;7376829;19;20471;-75
2022/07/15 20:09:08;;;;;;;6.28;1.10;;;;;;;;;;7376250;19;20010;-76
2022/07/15 20:11:33;;;;;;;5.50;1.07;;;;;;;;;;7370514;19;20462;-76
2022/07/15 20:13:58;;;;;;;2.55;0.90;;;;;;;;;;7374181;19;20011;-75
2022/07/15 20:16:23;;;;;;;6.55;1.30;;;;;;;;;;7370777;19;20010;-76
2022/07/15 20:18:49;;;;;;;3.57;0.97;;;;;;;;;;7363314;19;19999;-73
2022/07/15 20:21:15;;;;;;;4.25;0.90;;;;;;;;;;7363480;19;20247;-76
2022/07/15 20:23:41;;;;;;;4.07;1.00;;;;;;;;;;7373719;19;20002;-77
2022/07/15 20:26:06;;;;;;;3.50;1.00;;;;;;;;;;7365212;19;20011;-74
2022/07/15 20:28:32;;;;;;;5.72;1.58;;;;;;;;;;7357020;19;20827;-74
2022/07/15 20:30:57;;;;;;;5.05;1.20;;;;;;;;;;7361317;19;20356;-76
2022/07/15 20:33:22;;;;;;;5.63;1.40;;;;;;;;;;7359954;19;20013;-73
2022/07/15 20:35:47;;;;;;;4.73;1.00;;;;;;;;;;7362210;19;20537;-77
2022/07/15 20:38:12;;;;;;;5.90;1.33;;;;;;;;;;7362456;19;20447;-75
2022/07/15 20:40:38;;;;;;;5.77;1.00;;;;;;;;;;7351768;19;20090;-74
2022/07/15 20:43:03;;;;;;;4.57;1.35;;;;;;;;;;7371749;19;19994;-76
2022/07/15 20:45:28;;;;;;;4.47;1.10;;;;;;;;;;7371269;19;20113;-77
2022/07/15 20:47:53;;;;;;;6.28;1.10;;;;;;;;;;7363834;19;20837;-77
2022/07/15 20:50:19;;;;;;;4.37;1.13;;;;;;;;;;7371066;19;20507;-76